sensor_id;sensor_type;location;lat;lon;timestamp;P1;durP1;ratioP1;P2;durP2;ratioP2
46729;SDS011;32476;50.002;11.854;2023-02-15T00:02:20;9.53;;;5.43;;
46729;SDS011;32476;50.002;11.854;2023-02-15T00:04:46;7.40;;;4.40;;
46729;SDS011;32476;50.002;11.854;2023-02-15T00:07:16;6.90;;;4.23;;
46729;SDS011;32476;50.002;11.854;2023-02-15T00:09:45;6.73;;;4.03;;
46729;SDS011;32476;50.002;11.854;2023-02-15T00:12:12;7.40;;;4.37;;
46729;SDS011;32476;50.002;11.854;2023-02-15T00:14:39;5.47;;;4.03;;
46729;SDS011;32476;50.002;11.854;2023-02-15T00:17:06;5.97;;;3.70;;
46729;SDS011;32476;50.002;11.854;2023-02-15T00:19:32;8.77;;;4.13;;
46729;SDS011;32476;50.002;11.854;2023-02-15T00:21:58;7.30;;;3.90;;
46729;SDS011;32476;50.002;11.854;2023-02-15T00:24:26;6.50;;;4.20;;
46729;SDS011;32476;50.002;11.854;2023-02-15T00:26:52;7.00;;;4.43;;
46729;SDS011;32476;50.002;11.854;2023-02-15T00:29:18;7.83;;;4.30;;
46729;SDS011;32476;50.002;11.854;2023-02-15T00:31:46;6.40;;;4.60;;
46729;SDS011;32476;50.002;11.854;2023-02-15T00:34:14;7.73;;;4.67;;
46729;SDS011;32476;50.002;11.854;2023-02-15T00:36:47;20.93;;;10.43;;
46729;SDS011;32476;50.002;11.854;2023-02-15T00:39:14;18.23;;;9.27;;
46729;SDS011;32476;50.002;11.854;2023-02-15T00:41:42;16.13;;;8.67;;
46729;SDS011;32476;50.002;11.854;2023-02-15T00:44:10;16.40;;;8.53;;
46729;SDS011;32476;50.002;11.854;2023-02-15T00:46:36;8.23;;;5.10;;
46729;SDS011;32476;50.002;11.854;2023-02-15T00:49:02;8.67;;;5.53;;
46729;SDS011;32476;50.002;11.854;2023-02-15T00:51:31;6.80;;;4.10;;
46729;SDS011;32476;50.002;11.854;2023-02-15T00:53:57;5.20;;;3.40;;
46729;SDS011;32476;50.002;11.854;2023-02-15T00:56:23;7.87;;;3.67;;
46729;SDS011;32476;50.002;11.854;2023-02-15T00:58:51;6.20;;;3.90;;
46729;SDS011;32476;50.002;11.854;2023-02-15T01:01:17;5.53;;;3.37;;
46729;SDS011;32476;50.002;11.854;2023-02-15T01:03:44;5.60;;;2.87;;
46729;SDS011;32476;50.002;11.854;2023-02-15T01:06:13;3.73;;;2.53;;
46729;SDS011;32476;50.002;11.854;2023-02-15T01:08:41;5.10;;;2.77;;
46729;SDS011;32476;50.002;11.854;2023-02-15T01:11:13;4.10;;;2.33;;
46729;SDS011;32476;50.002;11.854;2023-02-15T01:13:52;3.80;;;2.50;;
46729;SDS011;32476;50.002;11.854;2023-02-15T01:16:24;2.90;;;2.20;;
46729;SDS011;32476;50.002;11.854;2023-02-15T01:18:53;2.67;;;2.20;;
46729;SDS011;32476;50.002;11.854;2023-02-15T01:21:26;4.27;;;2.63;;
46729;SDS011;32476;50.002;11.854;2023-02-15T01:23:53;3.93;;;2.60;;
46729;SDS011;32476;50.002;11.854;2023-02-15T01:26:19;2.47;;;2.13;;
46729;SDS011;32476;50.002;11.854;2023-02-15T01:28:45;3.53;;;2.70;;
46729;SDS011;32476;50.002;11.854;2023-02-15T01:31:14;3.93;;;2.60;;
46729;SDS011;32476;50.002;11.854;2023-02-15T01:33:42;3.37;;;2.23;;
46729;SDS011;32476;50.002;11.854;2023-02-15T01:36:08;3.47;;;2.20;;
46729;SDS011;32476;50.002;11.854;2023-02-15T01:38:36;4.57;;;2.50;;
46729;SDS011;32476;50.002;11.854;2023-02-15T01:41:02;2.47;;;1.90;;
46729;SDS011;32476;50.002;11.854;2023-02-15T01:46:21;3.50;;;2.20;;
46729;SDS011;32476;50.002;11.854;2023-02-15T01:48:56;3.30;;;2.43;;
46729;SDS011;32476;50.002;11.854;2023-02-15T01:51:29;5.03;;;3.07;;
46729;SDS011;32476;50.002;11.854;2023-02-15T01:54:01;6.60;;;3.23;;
46729;SDS011;32476;50.002;11.854;2023-02-15T01:56:34;3.07;;;1.77;;
46729;SDS011;32476;50.002;11.854;2023-02-15T01:59:05;5.10;;;2.30;;
46729;SDS011;32476;50.002;11.854;2023-02-15T02:01:37;2.10;;;1.80;;
46729;SDS011;32476;50.002;11.854;2023-02-15T02:06:53;4.00;;;2.23;;
46729;SDS011;32476;50.002;11.854;2023-02-15T02:09:21;2.40;;;1.60;;
46729;SDS011;32476;50.002;11.854;2023-02-15T02:11:47;1.93;;;1.57;;
46729;SDS011;32476;50.002;11.854;2023-02-15T02:14:14;1.97;;;1.53;;
46729;SDS011;32476;50.002;11.854;2023-02-15T02:16:48;1.40;;;1.30;;
46729;SDS011;32476;50.002;11.854;2023-02-15T02:19:55;2.17;;;1.60;;
46729;SDS011;32476;50.002;11.854;2023-02-15T02:34:13;2.23;;;1.70;;
46729;SDS011;32476;50.002;11.854;2023-02-15T02:36:57;4.77;;;2.73;;
46729;SDS011;32476;50.002;11.854;2023-02-15T02:39:32;13.70;;;7.30;;
46729;SDS011;32476;50.002;11.854;2023-02-15T02:42:21;11.57;;;6.20;;
46729;SDS011;32476;50.002;11.854;2023-02-15T02:45:03;11.03;;;6.80;;
46729;SDS011;32476;50.002;11.854;2023-02-15T02:50:27;16.50;;;7.30;;
46729;SDS011;32476;50.002;11.854;2023-02-15T02:52:55;6.53;;;2.80;;
46729;SDS011;32476;50.002;11.854;2023-02-15T02:58:01;3.10;;;1.60;;
46729;SDS011;32476;50.002;11.854;2023-02-15T03:01:01;3.23;;;2.03;;
46729;SDS011;32476;50.002;11.854;2023-02-15T03:06:33;4.10;;;1.63;;
46729;SDS011;32476;50.002;11.854;2023-02-15T03:09:28;2.50;;;1.30;;
46729;SDS011;32476;50.002;11.854;2023-02-15T03:12:32;2.07;;;1.63;;
46729;SDS011;32476;50.002;11.854;2023-02-15T03:15:19;4.23;;;1.70;;
46729;SDS011;32476;50.002;11.854;2023-02-15T03:17:52;1.60;;;1.30;;
46729;SDS011;32476;50.002;11.854;2023-02-15T03:20:26;1.60;;;1.20;;
46729;SDS011;32476;50.002;11.854;2023-02-15T03:23:01;1.33;;;1.17;;
46729;SDS011;32476;50.002;11.854;2023-02-15T03:25:42;1.83;;;1.10;;
46729;SDS011;32476;50.002;11.854;2023-02-15T03:28:13;1.53;;;1.30;;
46729;SDS011;32476;50.002;11.854;2023-02-15T03:30:46;2.87;;;1.50;;
46729;SDS011;32476;50.002;11.854;2023-02-15T03:33:17;5.70;;;3.17;;
46729;SDS011;32476;50.002;11.854;2023-02-15T03:35:49;5.37;;;1.77;;
46729;SDS011;32476;50.002;11.854;2023-02-15T03:38:42;2.63;;;1.83;;
46729;SDS011;32476;50.002;11.854;2023-02-15T03:41:18;7.13;;;3.13;;
46729;SDS011;32476;50.002;11.854;2023-02-15T03:46:23;12.83;;;8.03;;
46729;SDS011;32476;50.002;11.854;2023-02-15T03:48:57;15.13;;;7.53;;
46729;SDS011;32476;50.002;11.854;2023-02-15T03:51:35;23.83;;;13.33;;
46729;SDS011;32476;50.002;11.854;2023-02-15T03:54:06;10.10;;;6.00;;
46729;SDS011;32476;50.002;11.854;2023-02-15T03:56:37;169.07;;;99.03;;
46729;SDS011;32476;50.002;11.854;2023-02-15T03:59:06;156.10;;;103.70;;
46729;SDS011;32476;50.002;11.854;2023-02-15T04:04:47;21.30;;;12.47;;
46729;SDS011;32476;50.002;11.854;2023-02-15T04:07:15;8.70;;;6.47;;
46729;SDS011;32476;50.002;11.854;2023-02-15T04:09:41;4.80;;;2.80;;
46729;SDS011;32476;50.002;11.854;2023-02-15T04:12:27;4.73;;;3.37;;
46729;SDS011;32476;50.002;11.854;2023-02-15T04:14:53;2.23;;;1.80;;
46729;SDS011;32476;50.002;11.854;2023-02-15T04:17:39;2.87;;;1.00;;
46729;SDS011;32476;50.002;11.854;2023-02-15T04:20:05;4.73;;;1.33;;
46729;SDS011;32476;50.002;11.854;2023-02-15T04:22:52;2.23;;;1.60;;
46729;SDS011;32476;50.002;11.854;2023-02-15T04:25:36;1.97;;;0.97;;
46729;SDS011;32476;50.002;11.854;2023-02-15T04:28:04;2.60;;;1.00;;
46729;SDS011;32476;50.002;11.854;2023-02-15T04:30:30;2.33;;;1.60;;
46729;SDS011;32476;50.002;11.854;2023-02-15T04:32:55;1.40;;;1.20;;
46729;SDS011;32476;50.002;11.854;2023-02-15T04:35:23;2.17;;;1.53;;
46729;SDS011;32476;50.002;11.854;2023-02-15T04:37:50;3.63;;;2.57;;
46729;SDS011;32476;50.002;11.854;2023-02-15T04:40:16;5.87;;;2.50;;
46729;SDS011;32476;50.002;11.854;2023-02-15T04:42:46;2.10;;;1.80;;
46729;SDS011;32476;50.002;11.854;2023-02-15T04:45:14;53.17;;;22.17;;
46729;SDS011;32476;50.002;11.854;2023-02-15T04:47:40;4.87;;;3.20;;
46729;SDS011;32476;50.002;11.854;2023-02-15T04:50:08;4.20;;;2.60;;
46729;SDS011;32476;50.002;11.854;2023-02-15T04:52:34;3.17;;;2.20;;
46729;SDS011;32476;50.002;11.854;2023-02-15T04:55:01;6.07;;;2.37;;
46729;SDS011;32476;50.002;11.854;2023-02-15T04:57:29;6.87;;;3.87;;
46729;SDS011;32476;50.002;11.854;2023-02-15T04:59:55;2.70;;;1.70;;
46729;SDS011;32476;50.002;11.854;2023-02-15T05:02:20;3.80;;;1.93;;
46729;SDS011;32476;50.002;11.854;2023-02-15T05:04:48;5.53;;;3.00;;
46729;SDS011;32476;50.002;11.854;2023-02-15T05:07:14;6.63;;;3.37;;
46729;SDS011;32476;50.002;11.854;2023-02-15T05:09:40;4.30;;;2.57;;
46729;SDS011;32476;50.002;11.854;2023-02-15T05:12:07;33.47;;;16.27;;
46729;SDS011;32476;50.002;11.854;2023-02-15T05:14:33;11.67;;;6.43;;
46729;SDS011;32476;50.002;11.854;2023-02-15T05:16:59;12.13;;;5.80;;
46729;SDS011;32476;50.002;11.854;2023-02-15T05:19:28;8.97;;;5.10;;
46729;SDS011;32476;50.002;11.854;2023-02-15T05:21:54;5.50;;;3.13;;
46729;SDS011;32476;50.002;11.854;2023-02-15T05:24:20;5.77;;;3.13;;
46729;SDS011;32476;50.002;11.854;2023-02-15T05:27:07;5.00;;;3.17;;
46729;SDS011;32476;50.002;11.854;2023-02-15T05:29:55;6.20;;;3.43;;
46729;SDS011;32476;50.002;11.854;2023-02-15T05:32:22;5.83;;;3.47;;
46729;SDS011;32476;50.002;11.854;2023-02-15T05:34:48;6.57;;;3.40;;
46729;SDS011;32476;50.002;11.854;2023-02-15T05:37:14;6.97;;;2.53;;
46729;SDS011;32476;50.002;11.854;2023-02-15T05:39:42;5.53;;;2.40;;
46729;SDS011;32476;50.002;11.854;2023-02-15T05:42:07;3.40;;;2.73;;
46729;SDS011;32476;50.002;11.854;2023-02-15T05:44:33;6.63;;;2.70;;
46729;SDS011;32476;50.002;11.854;2023-02-15T05:47:01;3.87;;;2.50;;
46729;SDS011;32476;50.002;11.854;2023-02-15T05:49:28;49.00;;;24.73;;
46729;SDS011;32476;50.002;11.854;2023-02-15T05:51:55;51.17;;;25.47;;
46729;SDS011;32476;50.002;11.854;2023-02-15T05:54:23;15.67;;;8.33;;
46729;SDS011;32476;50.002;11.854;2023-02-15T05:56:48;14.87;;;8.63;;
46729;SDS011;32476;50.002;11.854;2023-02-15T05:59:14;14.13;;;9.67;;
46729;SDS011;32476;50.002;11.854;2023-02-15T06:01:42;9.83;;;8.27;;
46729;SDS011;32476;50.002;11.854;2023-02-15T06:04:08;6.03;;;3.87;;
46729;SDS011;32476;50.002;11.854;2023-02-15T06:06:34;4.33;;;2.33;;
46729;SDS011;32476;50.002;11.854;2023-02-15T06:09:02;5.70;;;2.33;;
46729;SDS011;32476;50.002;11.854;2023-02-15T06:11:28;3.37;;;2.23;;
46729;SDS011;32476;50.002;11.854;2023-02-15T06:13:54;3.00;;;2.40;;
46729;SDS011;32476;50.002;11.854;2023-02-15T06:16:21;4.20;;;2.97;;
46729;SDS011;32476;50.002;11.854;2023-02-15T06:18:47;6.73;;;3.70;;
46729;SDS011;32476;50.002;11.854;2023-02-15T06:21:13;8.00;;;4.47;;
46729;SDS011;32476;50.002;11.854;2023-02-15T06:23:41;8.40;;;4.23;;
46729;SDS011;32476;50.002;11.854;2023-02-15T06:26:07;6.13;;;3.60;;
46729;SDS011;32476;50.002;11.854;2023-02-15T06:28:32;6.93;;;2.93;;
46729;SDS011;32476;50.002;11.854;2023-02-15T06:31:00;6.93;;;4.17;;
46729;SDS011;32476;50.002;11.854;2023-02-15T06:33:26;4.63;;;3.10;;
46729;SDS011;32476;50.002;11.854;2023-02-15T06:35:52;9.47;;;4.40;;
46729;SDS011;32476;50.002;11.854;2023-02-15T06:38:19;7.77;;;3.43;;
46729;SDS011;32476;50.002;11.854;2023-02-15T06:40:45;3.93;;;2.87;;
46729;SDS011;32476;50.002;11.854;2023-02-15T06:43:15;6.90;;;3.80;;
46729;SDS011;32476;50.002;11.854;2023-02-15T06:45:42;8.63;;;4.77;;
46729;SDS011;32476;50.002;11.854;2023-02-15T06:48:08;8.17;;;4.67;;
46729;SDS011;32476;50.002;11.854;2023-02-15T06:50:34;10.53;;;6.27;;
46729;SDS011;32476;50.002;11.854;2023-02-15T06:53:02;10.30;;;6.47;;
46729;SDS011;32476;50.002;11.854;2023-02-15T06:55:28;9.60;;;6.37;;
46729;SDS011;32476;50.002;11.854;2023-02-15T06:57:54;8.20;;;4.40;;
46729;SDS011;32476;50.002;11.854;2023-02-15T07:00:21;7.20;;;3.83;;
46729;SDS011;32476;50.002;11.854;2023-02-15T07:02:54;7.63;;;3.50;;
46729;SDS011;32476;50.002;11.854;2023-02-15T07:05:24;6.83;;;3.83;;
46729;SDS011;32476;50.002;11.854;2023-02-15T07:07:59;7.00;;;4.00;;
46729;SDS011;32476;50.002;11.854;2023-02-15T07:10:27;7.20;;;3.90;;
46729;SDS011;32476;50.002;11.854;2023-02-15T07:12:53;8.50;;;4.17;;
46729;SDS011;32476;50.002;11.854;2023-02-15T07:15:19;8.73;;;4.13;;
46729;SDS011;32476;50.002;11.854;2023-02-15T07:17:47;8.20;;;4.33;;
46729;SDS011;32476;50.002;11.854;2023-02-15T07:20:15;8.37;;;5.33;;
46729;SDS011;32476;50.002;11.854;2023-02-15T07:22:44;6.40;;;4.30;;
46729;SDS011;32476;50.002;11.854;2023-02-15T07:25:12;7.03;;;4.50;;
46729;SDS011;32476;50.002;11.854;2023-02-15T07:27:38;15.73;;;9.90;;
46729;SDS011;32476;50.002;11.854;2023-02-15T07:30:05;12.57;;;7.13;;
46729;SDS011;32476;50.002;11.854;2023-02-15T07:32:36;16.40;;;9.20;;
46729;SDS011;32476;50.002;11.854;2023-02-15T07:35:02;11.33;;;5.90;;
46729;SDS011;32476;50.002;11.854;2023-02-15T07:37:28;11.73;;;6.73;;
46729;SDS011;32476;50.002;11.854;2023-02-15T07:39:55;11.17;;;5.07;;
46729;SDS011;32476;50.002;11.854;2023-02-15T07:42:21;7.57;;;4.83;;
46729;SDS011;32476;50.002;11.854;2023-02-15T07:44:47;7.40;;;4.20;;
46729;SDS011;32476;50.002;11.854;2023-02-15T07:47:14;6.40;;;3.90;;
46729;SDS011;32476;50.002;11.854;2023-02-15T07:49:41;8.90;;;4.63;;
46729;SDS011;32476;50.002;11.854;2023-02-15T07:52:07;7.73;;;4.40;;
46729;SDS011;32476;50.002;11.854;2023-02-15T07:54:35;6.40;;;4.63;;
46729;SDS011;32476;50.002;11.854;2023-02-15T07:57:01;8.20;;;4.70;;
46729;SDS011;32476;50.002;11.854;2023-02-15T07:59:27;7.37;;;4.33;;
46729;SDS011;32476;50.002;11.854;2023-02-15T08:01:54;8.43;;;4.73;;
46729;SDS011;32476;50.002;11.854;2023-02-15T08:04:21;13.07;;;6.07;;
46729;SDS011;32476;50.002;11.854;2023-02-15T08:06:47;11.43;;;6.50;;
46729;SDS011;32476;50.002;11.854;2023-02-15T08:09:19;13.97;;;8.07;;
46729;SDS011;32476;50.002;11.854;2023-02-15T08:11:46;21.13;;;11.33;;
46729;SDS011;32476;50.002;11.854;2023-02-15T08:14:14;16.17;;;9.23;;
46729;SDS011;32476;50.002;11.854;2023-02-15T08:16:47;21.57;;;10.53;;
46729;SDS011;32476;50.002;11.854;2023-02-15T08:19:16;20.40;;;11.97;;
46729;SDS011;32476;50.002;11.854;2023-02-15T08:22:04;16.57;;;10.00;;
46729;SDS011;32476;50.002;11.854;2023-02-15T08:24:33;16.80;;;10.07;;
46729;SDS011;32476;50.002;11.854;2023-02-15T08:27:07;16.33;;;9.53;;
46729;SDS011;32476;50.002;11.854;2023-02-15T08:29:36;15.50;;;9.37;;
46729;SDS011;32476;50.002;11.854;2023-02-15T08:32:04;12.97;;;8.90;;
46729;SDS011;32476;50.002;11.854;2023-02-15T08:34:37;16.00;;;8.70;;
46729;SDS011;32476;50.002;11.854;2023-02-15T08:37:06;11.67;;;7.67;;
46729;SDS011;32476;50.002;11.854;2023-02-15T08:39:32;14.10;;;7.50;;
46729;SDS011;32476;50.002;11.854;2023-02-15T08:42:00;15.67;;;7.40;;
46729;SDS011;32476;50.002;11.854;2023-02-15T08:44:26;34.23;;;18.67;;
46729;SDS011;32476;50.002;11.854;2023-02-15T08:46:52;14.57;;;8.00;;
46729;SDS011;32476;50.002;11.854;2023-02-15T08:49:21;12.83;;;7.40;;
46729;SDS011;32476;50.002;11.854;2023-02-15T08:51:48;11.70;;;6.77;;
46729;SDS011;32476;50.002;11.854;2023-02-15T08:54:15;13.53;;;6.93;;
46729;SDS011;32476;50.002;11.854;2023-02-15T08:56:47;13.57;;;6.63;;
46729;SDS011;32476;50.002;11.854;2023-02-15T08:59:14;11.37;;;6.50;;
46729;SDS011;32476;50.002;11.854;2023-02-15T09:01:43;11.20;;;7.20;;
46729;SDS011;32476;50.002;11.854;2023-02-15T09:04:12;11.03;;;7.07;;
46729;SDS011;32476;50.002;11.854;2023-02-15T09:06:41;11.20;;;6.83;;
46729;SDS011;32476;50.002;11.854;2023-02-15T09:09:09;12.80;;;8.33;;
46729;SDS011;32476;50.002;11.854;2023-02-15T09:11:39;13.70;;;7.77;;
46729;SDS011;32476;50.002;11.854;2023-02-15T09:14:11;16.77;;;7.90;;
46729;SDS011;32476;50.002;11.854;2023-02-15T09:16:45;13.93;;;8.70;;
46729;SDS011;32476;50.002;11.854;2023-02-15T09:19:14;21.53;;;11.83;;
46729;SDS011;32476;50.002;11.854;2023-02-15T09:21:45;21.73;;;14.53;;
46729;SDS011;32476;50.002;11.854;2023-02-15T09:24:12;33.10;;;23.23;;
46729;SDS011;32476;50.002;11.854;2023-02-15T09:26:41;14.40;;;8.90;;
46729;SDS011;32476;50.002;11.854;2023-02-15T09:29:12;14.20;;;9.20;;
46729;SDS011;32476;50.002;11.854;2023-02-15T09:31:40;13.77;;;7.60;;
46729;SDS011;32476;50.002;11.854;2023-02-15T09:34:13;19.87;;;9.83;;
46729;SDS011;32476;50.002;11.854;2023-02-15T09:36:42;14.80;;;8.20;;
46729;SDS011;32476;50.002;11.854;2023-02-15T09:42:04;10.43;;;6.73;;
46729;SDS011;32476;50.002;11.854;2023-02-15T09:50:52;10.90;;;7.00;;
46729;SDS011;32476;50.002;11.854;2023-02-15T09:53:53;10.90;;;7.50;;
46729;SDS011;32476;50.002;11.854;2023-02-15T09:57:00;10.47;;;6.93;;
46729;SDS011;32476;50.002;11.854;2023-02-15T10:02:53;8.67;;;6.37;;
46729;SDS011;32476;50.002;11.854;2023-02-15T10:09:27;9.90;;;7.23;;
46729;SDS011;32476;50.002;11.854;2023-02-15T10:26:04;6.13;;;4.40;;
46729;SDS011;32476;50.002;11.854;2023-02-15T10:28:52;8.27;;;5.13;;
46729;SDS011;32476;50.002;11.854;2023-02-15T10:31:26;6.60;;;4.47;;
46729;SDS011;32476;50.002;11.854;2023-02-15T11:06:21;9.67;;;6.43;;
46729;SDS011;32476;50.002;11.854;2023-02-15T11:08:50;6.37;;;4.90;;
46729;SDS011;32476;50.002;11.854;2023-02-15T11:11:23;7.03;;;5.03;;
46729;SDS011;32476;50.002;11.854;2023-02-15T11:13:57;6.80;;;4.83;;
46729;SDS011;32476;50.002;11.854;2023-02-15T11:16:52;6.93;;;5.60;;
46729;SDS011;32476;50.002;11.854;2023-02-15T11:19:30;7.07;;;4.87;;
46729;SDS011;32476;50.002;11.854;2023-02-15T11:22:02;9.87;;;6.17;;
46729;SDS011;32476;50.002;11.854;2023-02-15T11:24:34;8.43;;;5.13;;
46729;SDS011;32476;50.002;11.854;2023-02-15T11:27:19;7.23;;;4.67;;
46729;SDS011;32476;50.002;11.854;2023-02-15T11:35:28;7.60;;;5.43;;
46729;SDS011;32476;50.002;11.854;2023-02-15T11:38:14;12.17;;;8.37;;
46729;SDS011;32476;50.002;11.854;2023-02-15T11:40:49;6.93;;;5.07;;
46729;SDS011;32476;50.002;11.854;2023-02-15T11:46:27;22.53;;;13.30;;
46729;SDS011;32476;50.002;11.854;2023-02-15T11:48:53;10.47;;;6.73;;
46729;SDS011;32476;50.002;11.854;2023-02-15T11:51:21;40.37;;;20.33;;
46729;SDS011;32476;50.002;11.854;2023-02-15T11:53:49;91.17;;;43.33;;
46729;SDS011;32476;50.002;11.854;2023-02-15T11:56:18;57.57;;;31.03;;
46729;SDS011;32476;50.002;11.854;2023-02-15T12:01:50;8.40;;;6.03;;
46729;SDS011;32476;50.002;11.854;2023-02-15T12:06:51;9.80;;;7.13;;
46729;SDS011;32476;50.002;11.854;2023-02-15T12:12:29;7.43;;;5.60;;
46729;SDS011;32476;50.002;11.854;2023-02-15T12:15:01;7.73;;;5.60;;
46729;SDS011;32476;50.002;11.854;2023-02-15T12:17:33;11.93;;;8.07;;
46729;SDS011;32476;50.002;11.854;2023-02-15T12:22:38;26.97;;;18.70;;
46729;SDS011;32476;50.002;11.854;2023-02-15T12:25:40;12.73;;;9.37;;
46729;SDS011;32476;50.002;11.854;2023-02-15T12:28:38;9.53;;;6.73;;
46729;SDS011;32476;50.002;11.854;2023-02-15T12:31:21;8.37;;;6.10;;
46729;SDS011;32476;50.002;11.854;2023-02-15T12:33:54;10.17;;;7.37;;
46729;SDS011;32476;50.002;11.854;2023-02-15T12:36:25;9.83;;;6.33;;
46729;SDS011;32476;50.002;11.854;2023-02-15T12:41:44;8.60;;;6.13;;
46729;SDS011;32476;50.002;11.854;2023-02-15T12:44:23;8.60;;;6.00;;
46729;SDS011;32476;50.002;11.854;2023-02-15T12:46:59;9.50;;;6.70;;
46729;SDS011;32476;50.002;11.854;2023-02-15T12:49:29;10.00;;;6.43;;
46729;SDS011;32476;50.002;11.854;2023-02-15T12:52:05;12.53;;;6.50;;
46729;SDS011;32476;50.002;11.854;2023-02-15T12:54:49;9.50;;;7.03;;
46729;SDS011;32476;50.002;11.854;2023-02-15T12:57:28;8.57;;;6.37;;
46729;SDS011;32476;50.002;11.854;2023-02-15T13:08:09;8.17;;;5.87;;
46729;SDS011;32476;50.002;11.854;2023-02-15T13:10:56;9.53;;;6.27;;
46729;SDS011;32476;50.002;11.854;2023-02-15T13:16:37;8.20;;;5.53;;
46729;SDS011;32476;50.002;11.854;2023-02-15T13:19:15;8.23;;;5.97;;
46729;SDS011;32476;50.002;11.854;2023-02-15T13:21:56;9.37;;;5.97;;
46729;SDS011;32476;50.002;11.854;2023-02-15T13:26:55;9.90;;;7.23;;
46729;SDS011;32476;50.002;11.854;2023-02-15T13:29:24;8.20;;;6.10;;
46729;SDS011;32476;50.002;11.854;2023-02-15T13:32:07;8.60;;;6.13;;
46729;SDS011;32476;50.002;11.854;2023-02-15T13:34:50;9.57;;;6.53;;
46729;SDS011;32476;50.002;11.854;2023-02-15T13:40:11;10.90;;;7.70;;
46729;SDS011;32476;50.002;11.854;2023-02-15T13:42:56;12.63;;;7.53;;
46729;SDS011;32476;50.002;11.854;2023-02-15T14:04:02;60.67;;;24.70;;
46729;SDS011;32476;50.002;11.854;2023-02-15T14:21:31;14.23;;;9.13;;
46729;SDS011;32476;50.002;11.854;2023-02-15T14:24:23;51.10;;;24.23;;
46729;SDS011;32476;50.002;11.854;2023-02-15T14:27:20;14.53;;;8.83;;
46729;SDS011;32476;50.002;11.854;2023-02-15T14:32:51;19.03;;;11.90;;
46729;SDS011;32476;50.002;11.854;2023-02-15T14:35:29;13.97;;;9.53;;
46729;SDS011;32476;50.002;11.854;2023-02-15T14:38:02;12.23;;;8.73;;
46729;SDS011;32476;50.002;11.854;2023-02-15T14:41:09;12.07;;;8.80;;
46729;SDS011;32476;50.002;11.854;2023-02-15T14:47:09;11.47;;;8.67;;
46729;SDS011;32476;50.002;11.854;2023-02-15T14:49:44;12.00;;;8.60;;
46729;SDS011;32476;50.002;11.854;2023-02-15T14:52:12;16.03;;;10.83;;
46729;SDS011;32476;50.002;11.854;2023-02-15T14:59:46;12.40;;;8.70;;
46729;SDS011;32476;50.002;11.854;2023-02-15T15:02:27;13.40;;;8.60;;
46729;SDS011;32476;50.002;11.854;2023-02-15T15:05:09;11.97;;;7.93;;
46729;SDS011;32476;50.002;11.854;2023-02-15T15:07:58;11.37;;;7.80;;
46729;SDS011;32476;50.002;11.854;2023-02-15T15:10:36;11.30;;;7.97;;
46729;SDS011;32476;50.002;11.854;2023-02-15T15:16:23;12.33;;;8.73;;
46729;SDS011;32476;50.002;11.854;2023-02-15T15:22:30;12.17;;;8.20;;
46729;SDS011;32476;50.002;11.854;2023-02-15T15:24:58;14.30;;;8.23;;
46729;SDS011;32476;50.002;11.854;2023-02-15T15:31:02;15.10;;;9.53;;
46729;SDS011;32476;50.002;11.854;2023-02-15T15:33:57;12.57;;;8.67;;
46729;SDS011;32476;50.002;11.854;2023-02-15T15:40:00;12.37;;;8.10;;
46729;SDS011;32476;50.002;11.854;2023-02-15T15:48:57;12.10;;;8.37;;
46729;SDS011;32476;50.002;11.854;2023-02-15T15:51:39;13.10;;;8.93;;
46729;SDS011;32476;50.002;11.854;2023-02-15T15:54:20;15.40;;;10.93;;
46729;SDS011;32476;50.002;11.854;2023-02-15T15:56:52;16.33;;;9.87;;
46729;SDS011;32476;50.002;11.854;2023-02-15T15:59:29;15.50;;;9.80;;
46729;SDS011;32476;50.002;11.854;2023-02-15T16:02:04;14.60;;;9.43;;
46729;SDS011;32476;50.002;11.854;2023-02-15T16:04:33;33.10;;;19.27;;
46729;SDS011;32476;50.002;11.854;2023-02-15T16:09:59;15.67;;;9.87;;
46729;SDS011;32476;50.002;11.854;2023-02-15T16:12:31;14.23;;;9.40;;
46729;SDS011;32476;50.002;11.854;2023-02-15T16:15:01;16.07;;;10.47;;
46729;SDS011;32476;50.002;11.854;2023-02-15T16:17:43;20.63;;;10.70;;
46729;SDS011;32476;50.002;11.854;2023-02-15T16:20:30;28.23;;;14.87;;
46729;SDS011;32476;50.002;11.854;2023-02-15T16:26:08;17.53;;;10.77;;
46729;SDS011;32476;50.002;11.854;2023-02-15T16:29:23;19.40;;;12.73;;
46729;SDS011;32476;50.002;11.854;2023-02-15T16:32:00;18.97;;;11.70;;
46729;SDS011;32476;50.002;11.854;2023-02-15T16:37:22;21.53;;;12.60;;
46729;SDS011;32476;50.002;11.854;2023-02-15T16:39:54;21.73;;;13.10;;
46729;SDS011;32476;50.002;11.854;2023-02-15T16:42:21;23.97;;;13.67;;
46729;SDS011;32476;50.002;11.854;2023-02-15T16:44:55;26.87;;;17.60;;
46729;SDS011;32476;50.002;11.854;2023-02-15T16:47:30;24.57;;;16.60;;
46729;SDS011;32476;50.002;11.854;2023-02-15T16:50:01;22.17;;;14.20;;
46729;SDS011;32476;50.002;11.854;2023-02-15T16:52:30;19.67;;;12.47;;
46729;SDS011;32476;50.002;11.854;2023-02-15T16:54:58;20.43;;;12.33;;
46729;SDS011;32476;50.002;11.854;2023-02-15T16:57:30;19.77;;;12.50;;
46729;SDS011;32476;50.002;11.854;2023-02-15T17:00:05;21.33;;;12.33;;
46729;SDS011;32476;50.002;11.854;2023-02-15T17:02:52;24.67;;;15.90;;
46729;SDS011;32476;50.002;11.854;2023-02-15T17:05:30;20.97;;;13.50;;
46729;SDS011;32476;50.002;11.854;2023-02-15T17:10:39;25.27;;;14.87;;
46729;SDS011;32476;50.002;11.854;2023-02-15T17:13:16;26.37;;;16.13;;
46729;SDS011;32476;50.002;11.854;2023-02-15T17:18:27;19.40;;;11.30;;
46729;SDS011;32476;50.002;11.854;2023-02-15T17:21:01;19.67;;;12.10;;
46729;SDS011;32476;50.002;11.854;2023-02-15T17:23:44;21.23;;;13.37;;
46729;SDS011;32476;50.002;11.854;2023-02-15T17:26:17;19.70;;;12.47;;
46729;SDS011;32476;50.002;11.854;2023-02-15T17:29:11;21.20;;;12.43;;
46729;SDS011;32476;50.002;11.854;2023-02-15T17:31:56;25.47;;;13.43;;
46729;SDS011;32476;50.002;11.854;2023-02-15T17:39:56;22.50;;;13.13;;
46729;SDS011;32476;50.002;11.854;2023-02-15T17:42:25;23.17;;;12.03;;
46729;SDS011;32476;50.002;11.854;2023-02-15T17:44:51;25.40;;;14.20;;
46729;SDS011;32476;50.002;11.854;2023-02-15T17:47:21;23.97;;;14.10;;
46729;SDS011;32476;50.002;11.854;2023-02-15T17:49:51;25.50;;;14.33;;
46729;SDS011;32476;50.002;11.854;2023-02-15T17:52:18;27.00;;;16.27;;
46729;SDS011;32476;50.002;11.854;2023-02-15T17:54:44;32.03;;;17.33;;
46729;SDS011;32476;50.002;11.854;2023-02-15T17:57:31;39.20;;;21.20;;
46729;SDS011;32476;50.002;11.854;2023-02-15T17:59:57;50.80;;;23.70;;
46729;SDS011;32476;50.002;11.854;2023-02-15T18:02:43;42.50;;;21.60;;
46729;SDS011;32476;50.002;11.854;2023-02-15T18:05:29;42.73;;;20.30;;
46729;SDS011;32476;50.002;11.854;2023-02-15T18:08:16;37.37;;;18.90;;
46729;SDS011;32476;50.002;11.854;2023-02-15T18:11:07;36.17;;;19.07;;
46729;SDS011;32476;50.002;11.854;2023-02-15T18:13:56;35.03;;;18.67;;
46729;SDS011;32476;50.002;11.854;2023-02-15T18:16:26;37.10;;;19.83;;
46729;SDS011;32476;50.002;11.854;2023-02-15T18:18:57;34.67;;;17.70;;
46729;SDS011;32476;50.002;11.854;2023-02-15T18:21:23;32.60;;;18.10;;
46729;SDS011;32476;50.002;11.854;2023-02-15T18:23:49;36.23;;;18.93;;
46729;SDS011;32476;50.002;11.854;2023-02-15T18:26:19;38.17;;;20.13;;
46729;SDS011;32476;50.002;11.854;2023-02-15T18:28:47;35.83;;;19.00;;
46729;SDS011;32476;50.002;11.854;2023-02-15T18:31:14;38.97;;;20.20;;
46729;SDS011;32476;50.002;11.854;2023-02-15T18:33:52;37.43;;;19.10;;
46729;SDS011;32476;50.002;11.854;2023-02-15T18:36:28;37.93;;;18.93;;